Belleair, FL (33756)

11:55 AM EDT on May 26, 2015 (GMT -0400)
South Greenwood | | Change Station
CLOSE
Current Station
Personal Weather Station
Location: Clearwater, FL
Elevation: 40 ft
Nearby Weather Stations

Elev 40 ft 27.94 °N, 82.79 °W | Updated 5 seconds ago

Partly Cloudy
Partly Cloudy
86.0 °F
Feels Like 93 °F
N
6.0
Wind Variable Wind from SSE
Gusts 14.0 mph

Today
High -- | Low -- °F
--% Chance of Precip.
Yesterday
High -- | Low -- °F
Precip. -- in
6:36 AM 8:19 PM
First Quarter, 59% visible
Pressure 30.19 in
Visibility 10.0 miles
Clouds Scattered Clouds 2200 ft
Mostly Cloudy 2800 ft
Heat Index 93 °F
Dew Point 72 °F
Humidity 64%
Rainfall 0.00 in
Snow Depth Not available.
UV 6 out of 12
Pollen 4.00 out of 12
Air Quality Not available.
Flu Activity Sporadic
METAR KPIE 261453Z 14011KT 10SM SCT022 BKN028 28/23 A3019 RMK AO2 SLP222 T02830233 50002 $

More Conditions Fewer Conditions

Pressure 30.19 in
Visibility 10.0 miles
Clouds Scattered Clouds 2200 ft
Mostly Cloudy 2800 ft
Heat Index 93 °F
Dew Point 72 °F
Humidity 64%
Rainfall 0.00 in
Snow Depth Not available.
UV 6 out of 12
Pollen 4.00 out of 12
Air Quality Not available.
Flu Activity Sporadic
METAR KPIE 261453Z 14011KT 10SM SCT022 BKN028 28/23 A3019 RMK AO2 SLP222 T02830233 50002 $

More Conditions Fewer Conditions

10-Day Weather Forecast

Almanac

Astronomy

May. 26, 2015 Rise Set
Actual Time
Civil Twilight
Nautical Twilight
Astronomical Twilight
Moon
Length of Visible Light
Length of Day
Tomorrow will be .
, % of the Moon is Illuminated

Today's Extremes

State Highs State Lows

Community

WunderPhotos

Upload Photos

1,824,367 photos uploaded!

WunderBlogs® & News

Nearby

Air Quality

  Air Quality AQ Index Pollutant
Not available.

Snow Depth

Station Depth Elevation

Earthquake Activity

City Distance Mag. Time & Date
Minimum magnitude displayed is 2.5.

Coastal Water Temperatures

Place Temperature

Stations

Nearby Weather Stations

Station Location Temp. Windchill Dew Point Humidity Wind Precip. Elev Updated Type